createdAt,value
2023-04-07T00:00:11.161Z,1012.80
2023-04-07T00:01:11.189Z,1012.80
2023-04-07T00:02:11.239Z,1012.80
2023-04-07T00:03:11.239Z,1012.79
2023-04-07T00:04:11.270Z,1012.79
2023-04-07T00:05:11.155Z,1012.78
2023-04-07T00:06:11.115Z,1012.75
2023-04-07T00:07:11.103Z,1012.77
2023-04-07T00:08:11.104Z,1012.75
2023-04-07T00:09:11.123Z,1012.74
2023-04-07T00:10:11.099Z,1012.75
2023-04-07T00:11:11.076Z,1012.73
2023-04-07T00:12:11.043Z,1012.74
2023-04-07T00:13:11.031Z,1012.72
2023-04-07T00:14:11.055Z,1012.73
2023-04-07T00:15:10.998Z,1012.68
2023-04-07T00:16:11.023Z,1012.72
2023-04-07T00:17:10.997Z,1012.70
2023-04-07T00:18:11.012Z,1012.70
2023-04-07T00:19:11.014Z,1012.69
2023-04-07T00:20:10.942Z,1012.68
2023-04-07T00:21:10.940Z,1012.70
2023-04-07T00:22:10.938Z,1012.68
2023-04-07T00:23:10.931Z,1012.71
2023-04-07T00:24:12.878Z,1012.72
2023-04-07T00:25:10.910Z,1012.72
2023-04-07T00:26:10.881Z,1012.65
2023-04-07T00:27:10.896Z,1012.63
2023-04-07T00:28:10.866Z,1012.61
2023-04-07T00:29:10.857Z,1012.63
2023-04-07T00:30:10.877Z,1012.62
2023-04-07T00:31:10.881Z,1012.59
2023-04-07T00:32:10.814Z,1012.59
2023-04-07T00:33:10.829Z,1012.58
2023-04-07T00:34:10.816Z,1012.61
2023-04-07T00:35:10.830Z,1012.58
2023-04-07T00:36:10.820Z,1012.57
2023-04-07T00:37:10.778Z,1012.62
2023-04-07T00:38:10.757Z,1012.55
2023-04-07T00:39:10.742Z,1012.60
2023-04-07T00:40:10.764Z,1012.58
2023-04-07T00:41:10.737Z,1012.59
2023-04-07T00:42:10.722Z,1012.59
2023-04-07T00:43:10.691Z,1012.62
2023-04-07T00:44:10.699Z,1012.59
2023-04-07T00:45:10.698Z,1012.59
2023-04-07T00:46:10.693Z,1012.59
2023-04-07T00:47:10.673Z,1012.56
2023-04-07T00:48:10.642Z,1012.51
2023-04-07T00:49:11.464Z,1012.54
2023-04-07T00:50:10.709Z,1012.55
2023-04-07T00:51:10.601Z,1012.49
2023-04-07T00:52:10.592Z,1012.51
2023-04-07T00:53:10.615Z,1012.50
2023-04-07T00:54:10.568Z,1012.52
2023-04-07T00:55:10.612Z,1012.46
2023-04-07T00:56:10.543Z,1012.43
2023-04-07T00:57:10.534Z,1012.43
2023-04-07T00:58:10.519Z,1012.43
2023-04-07T00:59:10.528Z,1012.43
2023-04-07T01:00:10.534Z,1012.46
2023-04-07T01:01:10.492Z,1012.42
2023-04-07T01:02:10.582Z,1012.42
2023-04-07T01:03:10.696Z,1012.44
2023-04-07T01:04:10.517Z,1012.43
2023-04-07T01:05:10.509Z,1012.42
2023-04-07T01:06:10.440Z,1012.41
2023-04-07T01:07:10.423Z,1012.43
2023-04-07T01:08:10.398Z,1012.39
2023-04-07T01:09:10.413Z,1012.45
2023-04-07T01:10:10.454Z,1012.40
2023-04-07T01:11:10.370Z,1012.37
2023-04-07T01:12:10.361Z,1012.42
2023-04-07T01:13:10.356Z,1012.40
2023-04-07T01:14:10.333Z,1012.41
2023-04-07T01:15:10.379Z,1012.41
2023-04-07T01:16:10.346Z,1012.39
2023-04-07T01:17:10.312Z,1012.38
2023-04-07T01:18:10.317Z,1012.35
2023-04-07T01:19:10.285Z,1012.35
2023-04-07T01:20:10.310Z,1012.36
2023-04-07T01:21:10.262Z,1012.31
2023-04-07T01:22:10.249Z,1012.29
2023-04-07T01:23:10.250Z,1012.26
2023-04-07T01:24:10.219Z,1012.29
2023-04-07T01:25:10.312Z,1012.28
2023-04-07T01:26:10.208Z,1012.28
2023-04-07T01:27:10.325Z,1012.28
2023-04-07T01:28:10.177Z,1012.27
2023-04-07T01:29:10.177Z,1012.29
2023-04-07T01:30:10.198Z,1012.26
2023-04-07T01:31:10.150Z,1012.23
2023-04-07T01:32:10.205Z,1012.19
2023-04-07T01:33:10.148Z,1012.18
2023-04-07T01:34:10.110Z,1012.19
2023-04-07T01:35:10.177Z,1012.18
2023-04-07T01:36:10.103Z,1012.17
2023-04-07T01:37:10.143Z,1012.11
2023-04-07T01:38:10.078Z,1012.16
2023-04-07T01:39:10.071Z,1012.15
2023-04-07T01:40:10.104Z,1012.13
2023-04-07T01:41:10.039Z,1012.12
2023-04-07T01:42:10.036Z,1012.11
2023-04-07T01:43:10.014Z,1012.13
2023-04-07T01:44:10.002Z,1012.11
2023-04-07T01:45:10.042Z,1012.08
2023-04-07T01:46:09.992Z,1012.08
2023-04-07T01:47:10.038Z,1012.12
2023-04-07T01:48:10.012Z,1012.09
2023-04-07T01:49:09.955Z,1012.05
2023-04-07T01:50:09.998Z,1012.08
2023-04-07T01:51:09.936Z,1012.10
2023-04-07T01:52:09.929Z,1012.05
2023-04-07T01:53:09.906Z,1012.05
2023-04-07T01:54:09.925Z,1012.03
2023-04-07T01:55:09.950Z,1012.08
2023-04-07T01:56:09.881Z,1012.07
2023-04-07T01:57:09.875Z,1012.06
2023-04-07T01:58:09.881Z,1012.03
2023-04-07T01:59:09.848Z,1012.08
2023-04-07T02:00:09.907Z,1012.08
2023-04-07T02:01:09.913Z,1012.07
2023-04-07T02:02:09.953Z,1012.13
2023-04-07T02:03:10.032Z,1012.08
2023-04-07T02:04:09.852Z,1012.08
2023-04-07T02:05:09.836Z,1012.11
2023-04-07T02:06:09.773Z,1012.06
2023-04-07T02:07:09.765Z,1012.12
2023-04-07T02:08:09.760Z,1012.10
2023-04-07T02:09:09.748Z,1012.07
2023-04-07T02:10:09.764Z,1012.07
2023-04-07T02:11:09.717Z,1012.09
2023-04-07T02:12:09.710Z,1012.07
2023-04-07T02:13:09.692Z,1012.04
2023-04-07T02:14:09.688Z,1012.04
2023-04-07T02:15:09.717Z,1012.05
2023-04-07T02:16:09.694Z,1012.04
2023-04-07T02:17:09.653Z,1012.07
2023-04-07T02:18:09.632Z,1012.04
2023-04-07T02:19:09.649Z,1012.04
2023-04-07T02:20:09.659Z,1012.07
2023-04-07T02:21:09.592Z,1012.02
2023-04-07T02:22:09.601Z,1012.04
2023-04-07T02:23:09.581Z,1012.04
2023-04-07T02:24:09.593Z,1012.03
2023-04-07T02:25:09.593Z,1012.06
2023-04-07T02:26:09.567Z,1012.00
2023-04-07T02:27:09.531Z,1012.00
2023-04-07T02:28:09.533Z,1012.06
2023-04-07T02:29:09.509Z,1012.00
2023-04-07T02:30:09.567Z,1012.00
2023-04-07T02:31:09.489Z,1011.96
2023-04-07T02:32:09.555Z,1012.01
2023-04-07T02:33:09.473Z,1011.97
2023-04-07T02:34:09.470Z,1011.99
2023-04-07T02:35:09.497Z,1011.97
2023-04-07T02:36:09.436Z,1011.95
2023-04-07T02:37:09.447Z,1011.93
2023-04-07T02:38:09.409Z,1011.93
2023-04-07T02:39:09.405Z,1011.94
2023-04-07T02:40:09.448Z,1011.97
2023-04-07T02:41:09.412Z,1011.89
2023-04-07T02:42:09.378Z,1011.93
2023-04-07T02:43:09.357Z,1011.94
2023-04-07T02:44:09.373Z,1011.94
2023-04-07T02:45:09.432Z,1011.88
2023-04-07T02:46:09.359Z,1011.93
2023-04-07T02:47:09.317Z,1011.92
2023-04-07T02:48:09.306Z,1011.90
2023-04-07T02:49:09.296Z,1011.90
2023-04-07T02:50:09.350Z,1011.87
2023-04-07T02:51:09.276Z,1011.88
2023-04-07T02:52:09.265Z,1011.86
2023-04-07T02:53:09.255Z,1011.88
2023-04-07T02:54:09.243Z,1011.87
2023-04-07T02:55:09.267Z,1011.87
2023-04-07T02:56:09.233Z,1011.87
2023-04-07T02:57:09.193Z,1011.87
2023-04-07T02:58:09.195Z,1011.88
2023-04-07T02:59:09.187Z,1011.87
2023-04-07T03:00:09.234Z,1011.85
2023-04-07T03:01:09.253Z,1011.88
2023-04-07T03:02:09.240Z,1011.89
2023-04-07T03:03:09.224Z,1011.82
2023-04-07T03:04:09.252Z,1011.84
2023-04-07T03:05:09.144Z,1011.85
2023-04-07T03:06:09.153Z,1011.81
2023-04-07T03:07:09.087Z,1011.80
2023-04-07T03:08:10.472Z,1011.80
2023-04-07T03:09:09.060Z,1011.79
2023-04-07T03:10:09.049Z,1011.76
2023-04-07T03:11:09.083Z,1011.80
2023-04-07T03:12:09.040Z,1011.79
2023-04-07T03:13:09.039Z,1011.77
2023-04-07T03:14:09.114Z,1011.76
2023-04-07T03:15:09.010Z,1011.80
2023-04-07T03:16:09.028Z,1011.77
2023-04-07T03:17:09.072Z,1011.75
2023-04-07T03:18:08.966Z,1011.76
2023-04-07T03:19:08.951Z,1011.73
2023-04-07T03:20:08.944Z,1011.69
2023-04-07T03:21:08.983Z,1011.71
2023-04-07T03:22:08.934Z,1011.70
2023-04-07T03:23:08.924Z,1011.70
2023-04-07T03:24:08.938Z,1011.72
2023-04-07T03:25:08.920Z,1011.68
2023-04-07T03:26:08.926Z,1011.74
2023-04-07T03:27:08.880Z,1011.73
2023-04-07T03:28:08.877Z,1011.64
2023-04-07T03:29:08.855Z,1011.69
2023-04-07T03:30:08.899Z,1011.68
2023-04-07T03:31:08.952Z,1011.65
2023-04-07T03:32:08.851Z,1011.65
2023-04-07T03:33:08.805Z,1011.71
2023-04-07T03:34:08.795Z,1011.69
2023-04-07T03:35:08.787Z,1011.74
2023-04-07T03:36:08.848Z,1011.67
2023-04-07T03:37:08.780Z,1011.71
2023-04-07T03:38:08.726Z,1011.69
2023-04-07T03:39:08.743Z,1011.65
2023-04-07T03:40:08.738Z,1011.63
2023-04-07T03:41:08.757Z,1011.64
2023-04-07T03:42:08.737Z,1011.59
2023-04-07T03:43:08.706Z,1011.61
2023-04-07T03:44:08.682Z,1011.58
2023-04-07T03:45:08.674Z,1011.54
2023-04-07T03:46:08.755Z,1011.54
2023-04-07T03:47:08.676Z,1011.59
2023-04-07T03:48:08.669Z,1011.57
2023-04-07T03:49:08.633Z,1011.53
2023-04-07T03:50:08.645Z,1011.50
2023-04-07T03:51:08.664Z,1011.51
2023-04-07T03:52:08.623Z,1011.51
2023-04-07T03:53:08.572Z,1011.46
2023-04-07T03:54:08.584Z,1011.47
2023-04-07T03:55:08.559Z,1011.48
2023-04-07T03:56:08.600Z,1011.47
2023-04-07T03:57:08.541Z,1011.49
2023-04-07T03:58:08.542Z,1011.52
2023-04-07T03:59:08.518Z,1011.55
2023-04-07T04:00:08.531Z,1011.52
2023-04-07T04:01:08.534Z,1011.52
2023-04-07T04:02:08.589Z,1011.51
2023-04-07T04:03:08.610Z,1011.55
2023-04-07T04:04:08.667Z,1011.60
2023-04-07T04:05:08.453Z,1011.55
2023-04-07T04:06:08.467Z,1011.56
2023-04-07T04:07:08.453Z,1011.57
2023-04-07T04:08:08.419Z,1011.59
2023-04-07T04:09:08.415Z,1011.56
2023-04-07T04:10:08.410Z,1011.59
2023-04-07T04:11:08.433Z,1011.61
2023-04-07T04:12:08.387Z,1011.62
2023-04-07T04:13:08.359Z,1011.61
2023-04-07T04:14:08.360Z,1011.67
2023-04-07T04:15:08.319Z,1011.68
2023-04-07T04:16:08.389Z,1011.70
2023-04-07T04:17:08.322Z,1011.67
2023-04-07T04:18:08.307Z,1011.71
2023-04-07T04:19:08.286Z,1011.72
2023-04-07T04:20:08.285Z,1011.68
2023-04-07T04:21:08.375Z,1011.68
2023-04-07T04:22:08.263Z,1011.69
2023-04-07T04:23:08.256Z,1011.67
2023-04-07T04:24:08.228Z,1011.73
2023-04-07T04:25:08.234Z,1011.68
2023-04-07T04:26:08.246Z,1011.67
2023-04-07T04:27:08.198Z,1011.69
2023-04-07T04:28:08.187Z,1011.72
2023-04-07T04:29:08.197Z,1011.73
2023-04-07T04:30:08.176Z,1011.67
2023-04-07T04:31:08.247Z,1011.71
2023-04-07T04:32:08.133Z,1011.66
2023-04-07T04:33:08.173Z,1011.70
2023-04-07T04:34:08.122Z,1011.72
2023-04-07T04:35:08.117Z,1011.71
2023-04-07T04:36:08.128Z,1011.74
2023-04-07T04:37:08.086Z,1011.74
2023-04-07T04:38:08.079Z,1011.69
2023-04-07T04:39:08.082Z,1011.73
2023-04-07T04:40:08.060Z,1011.72
2023-04-07T04:41:08.075Z,1011.70
2023-04-07T04:42:08.035Z,1011.70
2023-04-07T04:43:08.024Z,1011.73
2023-04-07T04:44:08.346Z,1011.67
2023-04-07T04:45:08.003Z,1011.68
2023-04-07T04:46:08.041Z,1011.70
2023-04-07T04:47:08.005Z,1011.71
2023-04-07T04:48:07.980Z,1011.71
2023-04-07T04:49:07.994Z,1011.68
2023-04-07T04:50:07.962Z,1011.66
2023-04-07T04:51:07.968Z,1011.66
2023-04-07T04:52:07.924Z,1011.66
2023-04-07T04:53:07.890Z,1011.71
2023-04-07T04:54:07.896Z,1011.63
2023-04-07T04:55:07.886Z,1011.69
2023-04-07T04:56:07.955Z,1011.71
2023-04-07T04:57:07.860Z,1011.67
2023-04-07T04:58:07.861Z,1011.70
2023-04-07T04:59:07.847Z,1011.69
2023-04-07T05:00:07.826Z,1011.66
2023-04-07T05:01:07.935Z,1011.63
2023-04-07T05:02:07.899Z,1011.68
2023-04-07T05:03:08.049Z,1011.66
2023-04-07T05:04:07.906Z,1011.69
2023-04-07T05:05:07.974Z,1011.64
2023-04-07T05:06:07.890Z,1011.67
2023-04-07T05:07:07.759Z,1011.74
2023-04-07T05:08:07.750Z,1011.75
2023-04-07T05:09:07.759Z,1011.68
2023-04-07T05:10:07.726Z,1011.71
2023-04-07T05:11:07.765Z,1011.74
2023-04-07T05:12:07.727Z,1011.76
2023-04-07T05:13:07.721Z,1011.79
2023-04-07T05:14:07.680Z,1011.75
2023-04-07T05:15:07.669Z,1011.79
2023-04-07T05:16:07.773Z,1011.78
2023-04-07T05:17:07.638Z,1011.79
2023-04-07T05:18:07.637Z,1011.71
2023-04-07T05:19:07.609Z,1011.72
2023-04-07T05:20:07.614Z,1011.76
2023-04-07T05:21:07.638Z,1011.79
2023-04-07T05:22:07.583Z,1011.81
2023-04-07T05:23:07.562Z,1011.79
2023-04-07T05:24:09.229Z,1011.80
2023-04-07T05:25:07.541Z,1011.79
2023-04-07T05:26:07.582Z,1011.82
2023-04-07T05:27:07.520Z,1011.80
2023-04-07T05:28:07.531Z,1011.81
2023-04-07T05:29:07.493Z,1011.79
2023-04-07T05:30:07.500Z,1011.78
2023-04-07T05:31:07.899Z,1011.79
2023-04-07T05:32:07.550Z,1011.83
2023-04-07T05:33:07.535Z,1011.83
2023-04-07T05:34:07.446Z,1011.82
2023-04-07T05:35:07.468Z,1011.80
2023-04-07T05:36:07.531Z,1011.78
2023-04-07T05:37:07.408Z,1011.74
2023-04-07T05:38:07.409Z,1011.74
2023-04-07T05:39:07.382Z,1011.79
2023-04-07T05:40:07.391Z,1011.78
2023-04-07T05:41:07.409Z,1011.77
2023-04-07T05:42:07.370Z,1011.74
2023-04-07T05:43:07.344Z,1011.74
2023-04-07T05:44:07.428Z,1011.68
2023-04-07T05:45:07.335Z,1011.71
2023-04-07T05:46:07.465Z,1011.63
2023-04-07T05:47:07.302Z,1011.62
2023-04-07T05:48:07.317Z,1011.62
2023-04-07T05:49:19.724Z,1011.61
2023-04-07T05:50:08.287Z,1011.68
2023-04-07T05:51:07.322Z,1011.68
2023-04-07T05:52:07.258Z,1011.70
2023-04-07T05:53:07.265Z,1011.72
2023-04-07T05:54:07.247Z,1011.71
2023-04-07T05:55:07.233Z,1011.70
2023-04-07T05:56:07.230Z,1011.75
2023-04-07T05:57:07.178Z,1011.72
2023-04-07T05:58:07.167Z,1011.75
2023-04-07T05:59:07.145Z,1011.76
2023-04-07T06:00:07.152Z,1011.77
2023-04-07T06:01:07.186Z,1011.75
2023-04-07T06:02:07.189Z,1011.78
2023-04-07T06:03:07.158Z,1011.76
2023-04-07T06:04:07.114Z,1011.80
2023-04-07T06:05:07.132Z,1011.76
2023-04-07T06:06:07.152Z,1011.82
2023-04-07T06:07:07.093Z,1011.82
2023-04-07T06:08:07.061Z,1011.79
2023-04-07T06:09:08.270Z,1011.87
2023-04-07T06:10:07.050Z,1011.77
2023-04-07T06:11:07.081Z,1011.82
2023-04-07T06:12:07.070Z,1011.82
2023-04-07T06:13:07.008Z,1011.81
2023-04-07T06:14:07.023Z,1011.86
2023-04-07T06:15:06.989Z,1011.79
2023-04-07T06:16:06.978Z,1011.81
2023-04-07T06:17:07.109Z,1011.79
2023-04-07T06:18:06.960Z,1011.82
2023-04-07T06:19:06.939Z,1011.75
2023-04-07T06:20:06.918Z,1011.75
2023-04-07T06:21:06.929Z,1011.76
2023-04-07T06:22:06.955Z,1011.79
2023-04-07T06:23:06.896Z,1011.77
2023-04-07T06:24:06.893Z,1011.81
2023-04-07T06:25:06.858Z,1011.75
2023-04-07T06:26:06.846Z,1011.73
2023-04-07T06:27:06.883Z,1011.74
2023-04-07T06:28:06.874Z,1011.76
2023-04-07T06:29:06.816Z,1011.74
2023-04-07T06:30:06.829Z,1011.69
2023-04-07T06:31:06.819Z,1011.71
2023-04-07T06:32:06.834Z,1011.67
2023-04-07T06:33:06.803Z,1011.65
2023-04-07T06:34:06.750Z,1011.66
2023-04-07T06:35:06.762Z,1011.62
2023-04-07T06:36:06.743Z,1011.60
2023-04-07T06:37:06.829Z,1011.61
2023-04-07T06:38:06.732Z,1011.61
2023-04-07T06:39:06.709Z,1011.60
2023-04-07T06:40:06.701Z,1011.63
2023-04-07T06:41:06.683Z,1011.62
2023-04-07T06:42:06.732Z,1011.63
2023-04-07T06:43:06.729Z,1011.60
2023-04-07T06:44:07.641Z,1011.64
2023-04-07T06:45:06.653Z,1011.62
2023-04-07T06:46:06.674Z,1011.61
2023-04-07T06:47:06.660Z,1011.64
2023-04-07T06:48:06.649Z,1011.64
2023-04-07T06:49:06.605Z,1011.66
2023-04-07T06:50:06.580Z,1011.66
2023-04-07T06:51:06.550Z,1011.64
2023-04-07T06:52:06.590Z,1011.66
2023-04-07T06:53:06.548Z,1011.62
2023-04-07T06:54:06.520Z,1011.69
2023-04-07T06:55:06.512Z,1011.61
2023-04-07T06:56:06.527Z,1011.62
2023-04-07T06:57:06.538Z,1011.62
2023-04-07T06:58:06.489Z,1011.66
2023-04-07T06:59:06.487Z,1011.67
2023-04-07T07:00:06.466Z,1011.66
2023-04-07T07:01:06.510Z,1011.68
2023-04-07T07:02:06.564Z,1011.66
2023-04-07T07:03:06.635Z,1011.67
2023-04-07T07:04:06.764Z,1011.63
2023-04-07T07:05:06.410Z,1011.64
2023-04-07T07:06:06.405Z,1011.67
2023-04-07T07:07:06.433Z,1011.69
2023-04-07T07:08:06.378Z,1011.69
2023-04-07T07:09:06.381Z,1011.70
2023-04-07T07:10:06.341Z,1011.70
2023-04-07T07:11:06.353Z,1011.70
2023-04-07T07:12:06.506Z,1011.73
2023-04-07T07:13:06.326Z,1011.69
2023-04-07T07:14:07.120Z,1011.70
2023-04-07T07:15:06.331Z,1011.69
2023-04-07T07:16:06.353Z,1011.65
2023-04-07T07:17:06.362Z,1011.70
2023-04-07T07:18:07.190Z,1011.67
2023-04-07T07:19:06.238Z,1011.67
2023-04-07T07:20:06.256Z,1011.71
2023-04-07T07:21:06.227Z,1011.66
2023-04-07T07:22:06.263Z,1011.73
2023-04-07T07:23:06.188Z,1011.70
2023-04-07T07:24:06.220Z,1011.72
2023-04-07T07:25:06.182Z,1011.73
2023-04-07T07:26:06.165Z,1011.73
2023-04-07T07:27:06.202Z,1011.77
2023-04-07T07:28:06.230Z,1011.73
2023-04-07T07:29:06.163Z,1011.75
2023-04-07T07:30:06.120Z,1011.74
2023-04-07T07:31:06.143Z,1011.78
2023-04-07T07:32:06.143Z,1011.78
2023-04-07T07:33:06.161Z,1011.80
2023-04-07T07:34:06.078Z,1011.75
2023-04-07T07:35:06.067Z,1011.76
2023-04-07T07:36:06.159Z,1011.75
2023-04-07T07:37:06.241Z,1011.76
2023-04-07T07:38:06.030Z,1011.73
2023-04-07T07:39:06.033Z,1011.78
2023-04-07T07:40:06.029Z,1011.82
2023-04-07T07:41:06.013Z,1011.76
2023-04-07T07:42:06.073Z,1011.75
2023-04-07T07:43:05.975Z,1011.80
2023-04-07T07:44:05.967Z,1011.75
2023-04-07T07:45:05.989Z,1011.75
2023-04-07T07:46:05.982Z,1011.77
2023-04-07T07:47:06.001Z,1011.75
2023-04-07T07:48:05.981Z,1011.75
2023-04-07T07:49:05.983Z,1011.81
2023-04-07T07:50:05.895Z,1011.79
2023-04-07T07:51:05.918Z,1011.79
2023-04-07T07:52:05.947Z,1011.80
2023-04-07T07:53:05.863Z,1011.81
2023-04-07T07:54:05.934Z,1011.80
2023-04-07T07:55:05.850Z,1011.84
2023-04-07T07:56:05.856Z,1011.86
2023-04-07T07:57:05.870Z,1011.83
2023-04-07T07:58:05.810Z,1011.85
2023-04-07T07:59:05.833Z,1011.80
2023-04-07T08:00:05.773Z,1011.82
2023-04-07T08:01:05.771Z,1011.82
2023-04-07T08:02:05.962Z,1011.83
2023-04-07T08:03:05.844Z,1011.83
2023-04-07T08:04:05.833Z,1011.86
2023-04-07T08:05:05.762Z,1011.86
2023-04-07T08:06:05.702Z,1011.87
2023-04-07T08:07:05.758Z,1011.91
2023-04-07T08:08:05.675Z,1011.92
2023-04-07T08:09:05.898Z,1011.91
2023-04-07T08:10:05.676Z,1011.89
2023-04-07T08:11:05.705Z,1011.86
2023-04-07T08:12:05.672Z,1011.88
2023-04-07T08:13:05.638Z,1011.89
2023-04-07T08:14:06.466Z,1011.90
2023-04-07T08:15:05.614Z,1011.87
2023-04-07T08:16:05.684Z,1011.89
2023-04-07T08:17:05.620Z,1011.91
2023-04-07T08:18:05.609Z,1011.90
2023-04-07T08:19:05.629Z,1011.90
2023-04-07T08:20:05.551Z,1011.89
2023-04-07T08:21:05.557Z,1011.89
2023-04-07T08:22:05.661Z,1011.92
2023-04-07T08:23:05.576Z,1011.95
2023-04-07T08:24:05.517Z,1011.98
2023-04-07T08:25:05.513Z,1011.98
2023-04-07T08:26:05.485Z,1011.99
2023-04-07T08:27:05.528Z,1011.96
2023-04-07T08:28:05.463Z,1012.04
2023-04-07T08:29:05.490Z,1012.02
2023-04-07T08:30:05.475Z,1012.01
2023-04-07T08:31:05.535Z,1012.02
2023-04-07T08:32:05.562Z,1012.03
2023-04-07T08:33:05.489Z,1012.04
2023-04-07T08:34:05.413Z,1012.02
2023-04-07T08:35:05.399Z,1012.00
2023-04-07T08:36:05.526Z,1011.99
2023-04-07T08:37:05.401Z,1012.02
2023-04-07T08:38:05.386Z,1012.03
2023-04-07T08:39:05.330Z,1012.03
2023-04-07T08:40:05.335Z,1012.05
2023-04-07T08:41:05.327Z,1012.02
2023-04-07T08:42:05.322Z,1012.04
2023-04-07T08:43:05.326Z,1012.06
2023-04-07T08:44:05.277Z,1012.05
2023-04-07T08:45:05.497Z,1012.09
2023-04-07T08:46:05.263Z,1012.07
2023-04-07T08:47:05.391Z,1012.02
2023-04-07T08:48:05.309Z,1012.03
2023-04-07T08:49:05.242Z,1012.09
2023-04-07T08:50:05.252Z,1012.06
2023-04-07T08:51:05.254Z,1012.05
2023-04-07T08:52:06.391Z,1012.02
2023-04-07T08:53:07.310Z,1011.98
2023-04-07T08:54:05.152Z,1012.04
2023-04-07T08:55:05.150Z,1012.03
2023-04-07T08:56:05.160Z,1012.05
2023-04-07T08:57:05.196Z,1012.06
2023-04-07T08:58:05.098Z,1012.05
2023-04-07T08:59:05.100Z,1012.06
2023-04-07T09:00:05.074Z,1012.05
2023-04-07T09:01:05.136Z,1012.07
2023-04-07T09:02:05.154Z,1012.07
2023-04-07T09:03:05.134Z,1012.09
2023-04-07T09:04:05.149Z,1012.09
2023-04-07T09:05:05.012Z,1012.11
2023-04-07T09:06:05.020Z,1012.15
2023-04-07T09:07:05.072Z,1012.13
2023-04-07T09:08:05.005Z,1012.13
2023-04-07T09:09:04.981Z,1012.13
2023-04-07T09:10:04.996Z,1012.12
2023-04-07T09:11:04.952Z,1012.12
2023-04-07T09:12:05.004Z,1012.11
2023-04-07T09:13:04.971Z,1012.11
2023-04-07T09:14:05.037Z,1012.12
2023-04-07T09:15:04.908Z,1012.11
2023-04-07T09:16:05.067Z,1012.12
2023-04-07T09:17:05.011Z,1012.08
2023-04-07T09:18:04.932Z,1012.10
2023-04-07T09:19:04.881Z,1012.10
2023-04-07T09:20:04.885Z,1012.11
2023-04-07T09:21:04.859Z,1012.09
2023-04-07T09:22:04.830Z,1012.08
2023-04-07T09:23:04.860Z,1012.12
2023-04-07T09:24:04.801Z,1012.10
2023-04-07T09:25:04.800Z,1012.13
2023-04-07T09:26:04.780Z,1012.10
2023-04-07T09:27:04.768Z,1012.15
2023-04-07T09:28:04.834Z,1012.10
2023-04-07T09:29:04.750Z,1012.08
2023-04-07T09:30:04.738Z,1012.07
2023-04-07T09:31:04.723Z,1012.03
2023-04-07T09:32:04.761Z,1012.05
2023-04-07T09:33:04.767Z,1011.99
2023-04-07T09:34:04.678Z,1011.98
2023-04-07T09:35:04.685Z,1012.01
2023-04-07T09:36:04.673Z,1012.02
2023-04-07T09:37:04.646Z,1012.02
2023-04-07T09:38:04.702Z,1012.01
2023-04-07T09:39:04.639Z,1011.98
2023-04-07T09:40:04.613Z,1011.95
2023-04-07T09:41:04.603Z,1011.95
2023-04-07T09:42:04.600Z,1011.92
2023-04-07T09:43:04.646Z,1011.97
2023-04-07T09:44:04.641Z,1011.92
2023-04-07T09:45:04.670Z,1011.90
2023-04-07T09:46:04.595Z,1011.89
2023-04-07T09:47:04.588Z,1011.91
2023-04-07T09:48:04.649Z,1011.86
2023-04-07T09:49:04.575Z,1011.85
2023-04-07T09:50:04.533Z,1011.83
2023-04-07T09:51:04.536Z,1011.83
2023-04-07T09:52:04.486Z,1011.84
2023-04-07T09:53:04.522Z,1011.81
2023-04-07T09:54:04.482Z,1011.81
2023-04-07T09:55:04.451Z,1011.77
2023-04-07T09:56:04.463Z,1011.77
2023-04-07T09:57:04.460Z,1011.73
2023-04-07T09:58:04.473Z,1011.77
2023-04-07T09:59:04.424Z,1011.74
2023-04-07T10:00:04.488Z,1011.78
2023-04-07T10:01:04.544Z,1011.75
2023-04-07T10:02:05.500Z,1011.74
2023-04-07T10:03:04.639Z,1011.75
2023-04-07T10:04:04.525Z,1011.75
2023-04-07T10:05:04.398Z,1011.78
2023-04-07T10:06:04.365Z,1011.74
2023-04-07T10:07:04.308Z,1011.78
2023-04-07T10:08:04.330Z,1011.80
2023-04-07T10:09:04.292Z,1011.82
2023-04-07T10:10:04.273Z,1011.77
2023-04-07T10:11:04.266Z,1011.76
2023-04-07T10:12:04.248Z,1011.80
2023-04-07T10:13:04.334Z,1011.78
2023-04-07T10:14:04.229Z,1011.80
2023-04-07T10:15:04.242Z,1011.80
2023-04-07T10:16:04.206Z,1011.79
2023-04-07T10:17:04.477Z,1011.73
2023-04-07T10:18:04.269Z,1011.78
2023-04-07T10:19:04.174Z,1011.76
2023-04-07T10:20:04.204Z,1011.78
2023-04-07T10:21:04.126Z,1011.80
2023-04-07T10:22:04.144Z,1011.77
2023-04-07T10:23:04.160Z,1011.77
2023-04-07T10:24:04.104Z,1011.82
2023-04-07T10:25:04.085Z,1011.79
2023-04-07T10:26:04.105Z,1011.86
2023-04-07T10:27:04.060Z,1011.83
2023-04-07T10:28:04.099Z,1011.92
2023-04-07T10:29:04.027Z,1011.83
2023-04-07T10:30:04.029Z,1011.84
2023-04-07T10:31:04.112Z,1011.86
2023-04-07T10:32:04.034Z,1011.83
2023-04-07T10:33:04.129Z,1011.86
2023-04-07T10:34:03.988Z,1011.82
2023-04-07T10:35:04.002Z,1011.82
2023-04-07T10:36:04.076Z,1011.85
2023-04-07T10:37:03.968Z,1011.83
2023-04-07T10:38:04.052Z,1011.86
2023-04-07T10:39:04.010Z,1011.85
2023-04-07T10:40:03.932Z,1011.87
2023-04-07T10:41:03.911Z,1011.85
2023-04-07T10:42:03.918Z,1011.86
2023-04-07T10:43:03.944Z,1011.86
2023-04-07T10:44:03.905Z,1011.87
2023-04-07T10:45:03.874Z,1011.89
2023-04-07T10:46:03.888Z,1011.91
2023-04-07T10:47:03.850Z,1011.90
2023-04-07T10:48:03.935Z,1011.87
2023-04-07T10:49:03.837Z,1011.89
2023-04-07T10:50:03.831Z,1011.91
2023-04-07T10:51:03.811Z,1011.93
2023-04-07T10:52:03.791Z,1011.90
2023-04-07T10:53:03.808Z,1011.84
2023-04-07T10:54:03.769Z,1011.86
2023-04-07T10:55:03.744Z,1011.89
2023-04-07T10:56:03.732Z,1011.90
2023-04-07T10:57:03.719Z,1011.83
2023-04-07T10:58:03.778Z,1011.86
2023-04-07T10:59:03.702Z,1011.85
2023-04-07T11:00:03.699Z,1011.85
2023-04-07T11:01:03.683Z,1011.86
2023-04-07T11:02:03.771Z,1011.80
2023-04-07T11:03:03.840Z,1011.85
2023-04-07T11:04:03.714Z,1011.88
2023-04-07T11:05:03.638Z,1011.83
2023-04-07T11:06:03.781Z,1011.82
2023-04-07T11:07:03.636Z,1011.85
2023-04-07T11:08:03.691Z,1011.83
2023-04-07T11:09:03.582Z,1011.82
2023-04-07T11:10:03.585Z,1011.81
2023-04-07T11:11:03.596Z,1011.86
2023-04-07T11:12:03.579Z,1011.84
2023-04-07T11:13:03.613Z,1011.84
2023-04-07T11:14:03.548Z,1011.82
2023-04-07T11:15:03.551Z,1011.83
2023-04-07T11:16:03.577Z,1011.83
2023-04-07T11:17:03.540Z,1011.82
2023-04-07T11:18:03.592Z,1011.82
2023-04-07T11:19:03.504Z,1011.83
2023-04-07T11:20:03.499Z,1011.82
2023-04-07T11:21:03.454Z,1011.80
2023-04-07T11:22:03.445Z,1011.79
2023-04-07T11:23:03.484Z,1011.80
2023-04-07T11:24:03.443Z,1011.85
2023-04-07T11:25:03.397Z,1011.76
2023-04-07T11:26:03.442Z,1011.82
2023-04-07T11:27:03.378Z,1011.84
2023-04-07T11:28:03.444Z,1011.85
2023-04-07T11:29:03.373Z,1011.82
2023-04-07T11:30:03.344Z,1011.81
2023-04-07T11:31:03.357Z,1011.79
2023-04-07T11:32:03.342Z,1011.83
2023-04-07T11:33:03.431Z,1011.84
2023-04-07T11:34:03.336Z,1011.83
2023-04-07T11:35:03.284Z,1011.81
2023-04-07T11:36:03.347Z,1011.80
2023-04-07T11:37:03.276Z,1011.87
2023-04-07T11:38:03.316Z,1011.85
2023-04-07T11:39:03.385Z,1011.87
2023-04-07T11:40:03.254Z,1011.89
2023-04-07T11:41:03.403Z,1011.87
2023-04-07T11:42:03.233Z,1011.87
2023-04-07T11:43:03.256Z,1011.89
2023-04-07T11:44:03.200Z,1011.85
2023-04-07T11:45:03.192Z,1011.87
2023-04-07T11:46:03.184Z,1011.86
2023-04-07T11:47:03.341Z,1011.85
2023-04-07T11:48:03.237Z,1011.87
2023-04-07T11:49:03.111Z,1011.82
2023-04-07T11:50:03.113Z,1011.90
2023-04-07T11:51:03.095Z,1011.84
2023-04-07T11:52:03.329Z,1011.84
2023-04-07T11:53:03.158Z,1011.82
2023-04-07T11:54:03.080Z,1011.85
2023-04-07T11:55:03.066Z,1011.83
2023-04-07T11:56:03.048Z,1011.84
2023-04-07T11:57:03.029Z,1011.88
2023-04-07T11:58:03.021Z,1011.85
2023-04-07T11:59:03.056Z,1011.85
2023-04-07T12:00:03.015Z,1011.82
2023-04-07T12:01:02.984Z,1011.83
2023-04-07T12:02:03.087Z,1011.80
2023-04-07T12:03:03.180Z,1011.84
2023-04-07T12:04:03.381Z,1011.85
2023-04-07T12:05:03.069Z,1011.80